Time;durP1;ratioP1;P1;durP2;ratioP2;P2;SDS_P1;SDS_P2;PMS_P1;PMS_P2;Temp;Humidity;BMP_temperature;BMP_pressure;BME280_temperature;BME280_humidity;BME280_pressure;Samples;Min_cycle;Max_cycle;Signal;HPM_P1;HPM_P2
2023/03/21 00:01:04;;;;;;;14.47;5.77;;;9.20;99.90;;;;;;5077010;28;20240;-45
2023/03/21 00:03:32;;;;;;;13.23;6.30;;;9.20;99.90;;;;;;5076963;28;20179;-46
2023/03/21 00:06:03;;;;;;;15.40;6.20;;;9.20;99.90;;;;;;5077838;28;20303;-42
2023/03/21 00:08:29;;;;;;;13.83;6.30;;;9.30;99.90;;;;;;5075709;28;20164;-46
2023/03/21 00:11:00;;;;;;;15.03;5.83;;;9.20;99.90;;;;;;5075347;28;20209;-44
2023/03/21 00:13:31;;;;;;;14.70;6.00;;;9.30;99.90;;;;;;5075092;28;20185;-45
2023/03/21 00:16:02;;;;;;;19.83;6.30;;;9.30;99.90;;;;;;5075138;28;20240;-47
2023/03/21 00:18:28;;;;;;;16.73;5.83;;;9.20;99.90;;;;;;5075114;28;20254;-45
2023/03/21 00:21:04;;;;;;;14.83;5.90;;;9.30;99.90;;;;;;5074827;28;20735;-45
2023/03/21 00:23:33;;;;;;;16.00;6.50;;;9.30;99.90;;;;;;5076326;28;20210;-51
2023/03/21 00:25:59;;;;;;;16.60;5.87;;;9.30;99.90;;;;;;5074935;28;20167;-51
2023/03/21 00:28:26;;;;;;;14.73;6.33;;;9.30;99.90;;;;;;5074836;28;20235;-52
2023/03/21 00:30:57;;;;;;;14.63;5.90;;;9.30;99.90;;;;;;5074675;28;20197;-53
2023/03/21 00:33:23;;;;;;;13.70;6.37;;;9.30;99.90;;;;;;5074859;28;20181;-51
2023/03/21 00:35:50;;;;;;;13.13;5.63;;;9.30;99.90;;;;;;5074810;28;20177;-49
2023/03/21 00:38:17;;;;;;;18.30;6.33;;;9.40;99.90;;;;;;5074901;28;20178;-50
2023/03/21 00:40:43;;;;;;;14.37;6.83;;;9.40;99.90;;;;;;5074402;28;20187;-51
2023/03/21 00:43:10;;;;;;;15.17;6.93;;;9.30;99.90;;;;;;5087132;22;20194;-51
2023/03/21 00:45:36;;;;;;;14.60;5.30;;;9.40;99.90;;;;;;5075081;28;20163;-48
2023/03/21 00:48:03;;;;;;;13.67;4.47;;;9.40;99.90;;;;;;5073492;28;20547;-49
2023/03/21 00:50:29;;;;;;;10.40;5.40;;;9.40;99.90;;;;;;5074305;28;20200;-49
2023/03/21 00:52:54;;;;;;;17.23;6.77;;;9.50;99.90;;;;;;5074641;28;20186;-48
2023/03/21 00:55:20;;;;;;;13.50;6.47;;;9.50;99.90;;;;;;5074536;28;20174;-49
2023/03/21 00:57:46;;;;;;;17.40;6.53;;;9.60;99.90;;;;;;5074484;28;20186;-50
2023/03/21 01:00:14;;;;;;;15.97;6.17;;;9.60;99.90;;;;;;5074139;28;20538;-52
2023/03/21 01:02:55;;;;;;;18.70;5.63;;;9.60;99.90;;;;;;5074039;28;20217;-51
2023/03/21 01:06:01;;;;;;;11.93;4.93;;;9.60;99.90;;;;;;5074458;28;20211;-52
2023/03/21 01:08:11;;;;;;;10.57;5.20;;;9.60;99.90;;;;;;5073933;28;20211;-53
2023/03/21 01:10:41;;;;;;;14.83;5.70;;;9.60;99.90;;;;;;5073853;28;20320;-51
2023/03/21 01:13:08;;;;;;;12.40;5.60;;;9.60;99.90;;;;;;5074182;28;20534;-51
2023/03/21 01:15:35;;;;;;;13.97;5.97;;;9.70;99.90;;;;;;5072659;28;20217;-51
2023/03/21 01:18:02;;;;;;;18.87;6.57;;;9.70;99.90;;;;;;5073888;28;20175;-51
2023/03/21 01:20:28;;;;;;;13.63;5.83;;;9.70;99.90;;;;;;5073734;28;20653;-51
2023/03/21 01:22:54;;;;;;;15.90;6.00;;;9.70;99.90;;;;;;5073737;28;20575;-51
2023/03/21 01:25:20;;;;;;;12.20;5.93;;;9.70;99.90;;;;;;5073755;28;20187;-52
2023/03/21 01:27:45;;;;;;;13.00;5.63;;;9.70;99.90;;;;;;5074256;28;20174;-51
2023/03/21 01:30:11;;;;;;;14.00;6.47;;;9.60;99.90;;;;;;5073831;28;20170;-52
2023/03/21 01:32:37;;;;;;;18.13;6.30;;;9.60;99.90;;;;;;5074063;28;20218;-51
2023/03/21 01:35:03;;;;;;;13.87;6.40;;;9.60;99.90;;;;;;5073892;28;20179;-52
2023/03/21 01:37:29;;;;;;;12.40;6.57;;;9.50;99.90;;;;;;5073590;28;20183;-52
2023/03/21 01:39:54;;;;;;;14.43;6.23;;;9.50;99.90;;;;;;5073569;28;20671;-53
2023/03/21 01:42:20;;;;;;;10.13;5.90;;;9.50;99.90;;;;;;5073645;28;20210;-54
2023/03/21 01:44:55;;;;;;;12.37;5.53;;;9.40;99.90;;;;;;5073469;28;20191;-53
2023/03/21 01:47:21;;;;;;;13.03;6.17;;;9.40;99.90;;;;;;5072870;28;20185;-53
2023/03/21 01:49:50;;;;;;;13.07;6.20;;;9.30;99.90;;;;;;5073687;28;20186;-52
2023/03/21 01:52:27;;;;;;;12.10;5.63;;;9.30;99.90;;;;;;5073315;28;20574;-52
2023/03/21 01:54:55;;;;;;;13.93;5.57;;;9.20;99.90;;;;;;5073646;28;20210;-51
2023/03/21 01:57:31;;;;;;;13.73;6.07;;;9.20;99.90;;;;;;5073939;28;20175;-50
2023/03/21 01:59:58;;;;;;;12.70;6.10;;;9.20;99.90;;;;;;5073600;28;20178;-53
2023/03/21 02:02:30;;;;;;;15.50;5.93;;;9.10;99.90;;;;;;5073450;28;20605;-53
2023/03/21 02:04:57;;;;;;;11.50;5.53;;;9.00;99.90;;;;;;5073472;28;20156;-52
2023/03/21 02:07:35;;;;;;;16.80;6.33;;;9.00;99.90;;;;;;5073539;28;20203;-52
2023/03/21 02:10:03;;;;;;;16.40;5.97;;;8.90;99.90;;;;;;5073311;28;20206;-52
2023/03/21 02:12:30;;;;;;;11.73;5.50;;;8.80;99.90;;;;;;5073262;28;20185;-51
2023/03/21 02:14:56;;;;;;;9.90;5.30;;;8.70;99.90;;;;;;5073494;28;20647;-53
2023/03/21 02:17:41;;;;;;;11.87;5.60;;;8.60;99.90;;;;;;5073803;28;20635;-52
2023/03/21 02:20:07;;;;;;;10.40;5.37;;;8.60;99.90;;;;;;5071803;28;20510;-51
2023/03/21 02:23:00;;;;;;;12.97;5.60;;;8.50;99.90;;;;;;5073025;28;20718;-52
2023/03/21 02:25:37;;;;;;;15.60;6.33;;;8.50;99.90;;;;;;5073567;28;20163;-52
2023/03/21 02:28:06;;;;;;;10.07;5.73;;;8.40;99.90;;;;;;5073072;28;20217;-51
2023/03/21 02:30:54;;;;;;;11.17;5.73;;;8.30;99.90;;;;;;5072887;28;20614;-52
2023/03/21 02:33:40;;;;;;;9.00;5.10;;;8.30;99.90;;;;;;5072992;28;20163;-51
2023/03/21 02:36:34;;;;;;;8.37;5.20;;;8.30;99.90;;;;;;5073308;28;20194;-52
2023/03/21 02:39:03;;;;;;;10.37;5.57;;;8.20;99.90;;;;;;5073367;28;20161;-51
2023/03/21 02:41:56;;;;;;;11.33;5.37;;;8.20;99.90;;;;;;5073078;28;20210;-52
2023/03/21 02:45:00;;;;;;;10.67;5.83;;;8.20;99.90;;;;;;5072953;28;20194;-51
2023/03/21 02:47:36;;;;;;;10.10;5.33;;;8.20;99.90;;;;;;5038728;28;20669;-51
2023/03/21 02:50:05;;;;;;;9.80;6.27;;;8.20;99.90;;;;;;5073147;28;20230;-51
2023/03/21 02:52:34;;;;;;;14.63;6.40;;;8.20;99.90;;;;;;5072893;28;20176;-53
2023/03/21 02:55:03;;;;;;;9.10;5.10;;;8.20;99.90;;;;;;5073063;28;20315;-52
2023/03/21 02:57:30;;;;;;;14.03;5.50;;;8.30;99.90;;;;;;5074350;28;20176;-51
2023/03/21 02:59:56;;;;;;;10.10;5.63;;;8.30;99.90;;;;;;5076363;28;20267;-53
2023/03/21 03:02:25;;;;;;;12.93;5.83;;;8.30;99.90;;;;;;5076532;28;20243;-52
2023/03/21 03:04:51;;;;;;;12.50;6.17;;;8.30;99.90;;;;;;5076402;28;20169;-52
2023/03/21 03:07:45;;;;;;;14.97;6.00;;;8.30;99.90;;;;;;5076290;28;20179;-52
2023/03/21 03:10:52;;;;;;;11.80;5.70;;;8.30;99.90;;;;;;5076286;28;20168;-52
2023/03/21 03:13:42;;;;;;;9.63;5.63;;;8.40;99.90;;;;;;5076182;28;20199;-52
2023/03/21 03:16:25;;;;;;;11.63;5.53;;;8.40;99.90;;;;;;5076817;28;20576;-51
2023/03/21 03:18:59;;;;;;;13.13;6.13;;;8.40;99.90;;;;;;5076688;28;20537;-52
2023/03/21 03:21:30;;;;;;;13.77;5.90;;;8.40;99.90;;;;;;5076083;28;20710;-52
2023/03/21 03:24:06;;;;;;;13.43;6.57;;;8.50;99.90;;;;;;5076327;28;20241;-50
2023/03/21 03:26:39;;;;;;;12.70;5.73;;;8.50;99.90;;;;;;5076022;28;20192;-52
2023/03/21 03:29:10;;;;;;;10.60;5.33;;;8.50;99.90;;;;;;5076330;28;20170;-52
2023/03/21 03:31:42;;;;;;;13.47;6.53;;;8.50;99.90;;;;;;5075876;28;20676;-50
2023/03/21 03:34:16;;;;;;;16.47;6.13;;;8.50;99.90;;;;;;5076440;28;20188;-51
2023/03/21 03:36:46;;;;;;;13.63;6.33;;;8.50;99.90;;;;;;5076232;28;20214;-51
2023/03/21 03:39:14;;;;;;;12.67;6.03;;;8.50;99.90;;;;;;5076073;28;20188;-53
2023/03/21 03:41:55;;;;;;;11.30;5.30;;;8.60;99.90;;;;;;5076125;28;20197;-52
2023/03/21 03:44:20;;;;;;;11.87;5.40;;;8.50;99.90;;;;;;5075660;28;20205;-53
2023/03/21 03:46:56;;;;;;;12.67;5.60;;;8.50;99.90;;;;;;5075709;28;20171;-52
2023/03/21 03:49:26;;;;;;;10.87;4.93;;;8.60;99.90;;;;;;5076205;28;20175;-52
2023/03/21 03:52:08;;;;;;;16.40;5.70;;;8.60;99.90;;;;;;5075548;28;20195;-52
2023/03/21 03:54:46;;;;;;;15.23;6.23;;;8.60;99.90;;;;;;5075612;28;20164;-53
2023/03/21 03:57:12;;;;;;;11.93;5.50;;;8.60;99.90;;;;;;5075412;28;20169;-52
2023/03/21 03:59:40;;;;;;;14.87;5.33;;;8.60;99.90;;;;;;5075369;28;20755;-52
2023/03/21 04:02:06;;;;;;;8.97;4.33;;;8.60;99.90;;;;;;5075682;28;20200;-52
2023/03/21 04:04:33;;;;;;;11.33;4.83;;;8.60;99.90;;;;;;5075225;28;20183;-52
2023/03/21 04:06:58;;;;;;;11.50;4.77;;;8.60;99.90;;;;;;5075252;28;20168;-51
2023/03/21 04:09:27;;;;;;;14.23;5.83;;;8.70;99.90;;;;;;5074745;28;20175;-51
2023/03/21 04:11:53;;;;;;;12.40;5.23;;;8.70;99.90;;;;;;5075413;28;20246;-52
2023/03/21 04:14:19;;;;;;;9.73;4.83;;;8.70;99.90;;;;;;5075449;28;20183;-51
2023/03/21 04:16:45;;;;;;;12.63;5.80;;;8.70;99.90;;;;;;5075037;28;20185;-53
2023/03/21 04:19:11;;;;;;;12.53;4.50;;;8.70;99.90;;;;;;5075032;28;20219;-51
2023/03/21 04:21:37;;;;;;;14.83;4.90;;;8.70;99.90;;;;;;5074909;28;20335;-51
2023/03/21 04:24:03;;;;;;;16.53;6.13;;;8.70;99.90;;;;;;5074933;28;20657;-53
2023/03/21 04:26:31;;;;;;;13.13;4.93;;;8.70;99.90;;;;;;5075114;28;20181;-50
2023/03/21 04:29:01;;;;;;;16.37;5.30;;;8.70;99.90;;;;;;5075337;28;20172;-51
2023/03/21 04:31:30;;;;;;;12.97;5.50;;;8.70;99.90;;;;;;5074906;28;20792;-52
2023/03/21 04:34:00;;;;;;;10.20;5.63;;;8.80;99.90;;;;;;5075281;28;20190;-50
2023/03/21 04:36:29;;;;;;;13.30;5.53;;;8.70;99.90;;;;;;5075099;28;20179;-52
2023/03/21 04:38:59;;;;;;;9.90;4.87;;;8.70;99.90;;;;;;5074916;28;20176;-51
2023/03/21 04:41:26;;;;;;;11.70;5.20;;;8.70;99.90;;;;;;5074754;28;20215;-51
2023/03/21 04:43:52;;;;;;;13.60;5.40;;;8.70;99.90;;;;;;5074343;28;20195;-50
2023/03/21 04:46:18;;;;;;;10.83;5.63;;;8.70;99.90;;;;;;5075042;28;20187;-49
2023/03/21 04:48:43;;;;;;;14.17;5.07;;;8.70;99.90;;;;;;5074411;28;20176;-50
2023/03/21 04:51:09;;;;;;;11.07;5.07;;;8.70;99.90;;;;;;5074386;28;20247;-50
2023/03/21 04:53:34;;;;;;;10.83;5.63;;;8.70;99.90;;;;;;5074350;28;20181;-51
2023/03/21 04:56:00;;;;;;;15.03;6.07;;;8.70;99.90;;;;;;5074322;28;20515;-51
2023/03/21 04:58:26;;;;;;;9.20;4.57;;;8.70;99.90;;;;;;5074233;28;20181;-52
2023/03/21 05:00:51;;;;;;;13.90;5.30;;;8.70;99.90;;;;;;5074154;28;20261;-50
2023/03/21 05:03:21;;;;;;;11.63;5.90;;;8.70;99.90;;;;;;5074126;28;20297;-52
2023/03/21 05:05:47;;;;;;;10.77;5.60;;;8.70;99.90;;;;;;5074352;28;20264;-50
2023/03/21 05:08:13;;;;;;;11.47;5.47;;;8.70;99.90;;;;;;5074239;28;20183;-50
2023/03/21 05:10:39;;;;;;;10.73;5.10;;;8.70;99.90;;;;;;5074196;28;20197;-49
2023/03/21 05:13:05;;;;;;;11.40;5.23;;;8.70;99.90;;;;;;5073996;28;20652;-50
2023/03/21 05:15:30;;;;;;;11.63;5.23;;;8.70;99.90;;;;;;5073859;28;20182;-52
2023/03/21 05:18:10;;;;;;;11.87;5.20;;;8.70;99.90;;;;;;5072693;28;20175;-49
2023/03/21 05:20:41;;;;;;;11.33;5.50;;;8.70;99.90;;;;;;5072475;28;20195;-48
2023/03/21 05:23:10;;;;;;;16.93;5.63;;;8.60;99.90;;;;;;5074064;28;20238;-48
2023/03/21 05:25:39;;;;;;;9.40;5.60;;;8.70;99.90;;;;;;5074016;28;20188;-48
2023/03/21 05:28:06;;;;;;;13.57;5.17;;;8.60;99.90;;;;;;5073719;28;20548;-48
2023/03/21 05:30:32;;;;;;;13.17;5.23;;;8.60;99.90;;;;;;5073608;28;20196;-49
2023/03/21 05:32:58;;;;;;;10.60;5.27;;;8.60;99.90;;;;;;5073694;28;20245;-48
2023/03/21 05:35:24;;;;;;;14.97;5.97;;;8.60;99.90;;;;;;5073587;28;20180;-48
2023/03/21 05:37:49;;;;;;;16.57;5.70;;;8.60;99.90;;;;;;5073582;28;20179;-48
2023/03/21 05:40:15;;;;;;;11.57;4.80;;;8.60;99.90;;;;;;5073462;28;20229;-47
2023/03/21 05:42:41;;;;;;;13.40;5.40;;;8.70;99.90;;;;;;5072514;28;20710;-47
2023/03/21 05:45:07;;;;;;;11.87;5.27;;;8.70;99.90;;;;;;5073418;28;20191;-49
2023/03/21 05:47:33;;;;;;;9.97;5.13;;;8.70;99.90;;;;;;5074092;28;20184;-48
2023/03/21 05:49:59;;;;;;;13.83;5.47;;;8.70;99.90;;;;;;5073704;28;20179;-47
2023/03/21 05:52:24;;;;;;;14.17;5.73;;;8.70;99.90;;;;;;5073338;28;20199;-49
2023/03/21 05:54:50;;;;;;;13.73;5.50;;;8.70;99.90;;;;;;5073627;28;20187;-48
2023/03/21 05:57:18;;;;;;;17.63;6.30;;;8.70;99.90;;;;;;5073398;28;20181;-47
2023/03/21 05:59:43;;;;;;;12.77;5.57;;;8.70;99.90;;;;;;5073315;28;20203;-47
2023/03/21 06:02:09;;;;;;;17.63;5.47;;;8.80;99.90;;;;;;5073307;28;20244;-48
2023/03/21 06:04:34;;;;;;;13.70;5.40;;;8.80;99.90;;;;;;5073386;28;20188;-50
2023/03/21 06:07:00;;;;;;;12.77;5.83;;;8.80;99.90;;;;;;5073823;28;20176;-48
2023/03/21 06:09:26;;;;;;;13.50;5.13;;;8.80;99.90;;;;;;5073206;28;20210;-49
2023/03/21 06:11:54;;;;;;;16.43;5.23;;;8.80;99.90;;;;;;5074012;28;20214;-49
2023/03/21 06:14:20;;;;;;;10.97;4.10;;;8.90;99.90;;;;;;5073487;28;20187;-48
2023/03/21 06:16:45;;;;;;;8.90;4.13;;;8.90;99.90;;;;;;5073390;28;20184;-48
2023/03/21 06:19:11;;;;;;;8.67;3.47;;;9.00;99.90;;;;;;5073345;28;20244;-48
2023/03/21 06:21:37;;;;;;;9.70;3.73;;;9.00;99.90;;;;;;5073122;28;20203;-48
2023/03/21 06:24:03;;;;;;;6.03;3.23;;;9.00;99.90;;;;;;5073417;28;20191;-48
2023/03/21 06:26:29;;;;;;;10.83;3.20;;;9.10;99.90;;;;;;5073383;28;20314;-50
2023/03/21 06:28:55;;;;;;;8.50;2.87;;;9.10;99.90;;;;;;5073549;28;20182;-46
2023/03/21 06:31:21;;;;;;;7.23;3.00;;;9.10;99.90;;;;;;5073273;28;20568;-47
2023/03/21 06:33:48;;;;;;;5.77;2.73;;;9.20;99.90;;;;;;5076843;28;20171;-48
2023/03/21 06:36:14;;;;;;;7.23;3.03;;;9.20;99.90;;;;;;5077211;28;20191;-49
2023/03/21 06:38:39;;;;;;;6.13;2.90;;;9.20;99.90;;;;;;5077146;28;20648;-49
2023/03/21 06:41:06;;;;;;;5.17;2.67;;;9.20;99.90;;;;;;5076769;28;20615;-49
2023/03/21 06:43:32;;;;;;;8.03;3.13;;;9.20;99.90;;;;;;5076744;28;20192;-47
2023/03/21 06:45:58;;;;;;;10.93;3.30;;;9.20;99.90;;;;;;5076871;28;20504;-46
2023/03/21 06:48:24;;;;;;;7.23;3.03;;;9.20;99.90;;;;;;5076975;28;20232;-48
2023/03/21 06:50:51;;;;;;;7.53;3.13;;;9.20;99.90;;;;;;5076857;28;20231;-46
2023/03/21 06:53:19;;;;;;;8.63;3.30;;;9.20;99.90;;;;;;5076921;28;20189;-47
2023/03/21 06:55:51;;;;;;;9.67;3.10;;;9.20;99.90;;;;;;5077070;28;20190;-45
2023/03/21 06:58:17;;;;;;;5.10;2.77;;;9.30;99.90;;;;;;5076961;28;20253;-46
2023/03/21 07:00:43;;;;;;;8.97;2.97;;;9.30;99.90;;;;;;5076470;28;20240;-45
2023/03/21 07:03:10;;;;;;;10.53;3.60;;;9.30;99.90;;;;;;5076758;28;20222;-45
2023/03/21 07:05:36;;;;;;;5.47;3.33;;;9.40;99.90;;;;;;5076668;28;20184;-44
2023/03/21 07:08:02;;;;;;;9.50;3.13;;;9.40;99.90;;;;;;5076413;28;20177;-46
2023/03/21 07:10:28;;;;;;;8.67;3.00;;;9.40;99.90;;;;;;5076512;28;20198;-47
2023/03/21 07:12:54;;;;;;;7.43;3.00;;;9.40;99.90;;;;;;5076303;28;20235;-45
2023/03/21 07:15:20;;;;;;;9.53;3.50;;;9.40;99.90;;;;;;5076230;28;20184;-46
2023/03/21 07:17:45;;;;;;;10.27;3.10;;;9.40;99.90;;;;;;5076733;28;20191;-44
2023/03/21 07:20:11;;;;;;;10.63;3.70;;;9.40;99.90;;;;;;5076112;28;20550;-47
2023/03/21 07:22:37;;;;;;;8.20;3.40;;;9.40;99.90;;;;;;5076016;28;20698;-44
2023/03/21 07:25:04;;;;;;;9.53;4.03;;;9.40;99.90;;;;;;5076072;28;20261;-44
2023/03/21 07:27:29;;;;;;;14.67;3.77;;;9.40;99.90;;;;;;5075954;28;20233;-44
2023/03/21 07:29:55;;;;;;;10.10;4.07;;;9.50;99.90;;;;;;5076289;28;20180;-45
2023/03/21 07:32:21;;;;;;;11.00;4.20;;;9.50;99.90;;;;;;5076075;28;20237;-44
2023/03/21 07:34:47;;;;;;;8.53;3.73;;;9.50;99.90;;;;;;5075867;28;20190;-45
2023/03/21 07:37:12;;;;;;;13.40;4.40;;;9.50;99.90;;;;;;5075883;28;20186;-43
2023/03/21 07:39:38;;;;;;;8.40;3.80;;;9.50;99.90;;;;;;5075793;28;20208;-45
2023/03/21 07:42:04;;;;;;;13.83;4.47;;;9.60;99.90;;;;;;5075619;28;20219;-45
2023/03/21 07:44:30;;;;;;;12.87;3.93;;;9.50;99.90;;;;;;5074561;28;20245;-45
2023/03/21 07:46:55;;;;;;;9.20;4.27;;;9.60;99.90;;;;;;5075713;28;20660;-45
2023/03/21 07:49:21;;;;;;;10.23;4.47;;;9.60;99.90;;;;;;5075938;28;20540;-44
2023/03/21 07:51:46;;;;;;;13.37;4.80;;;9.60;99.90;;;;;;5075588;28;20210;-46
2023/03/21 07:54:12;;;;;;;8.83;4.33;;;9.60;99.90;;;;;;5075566;28;20512;-44
2023/03/21 07:56:38;;;;;;;9.07;4.50;;;9.60;99.90;;;;;;5075474;28;20180;-43
2023/03/21 07:59:04;;;;;;;12.07;4.50;;;9.60;99.90;;;;;;5075479;28;20177;-46
2023/03/21 08:01:30;;;;;;;9.70;4.50;;;9.60;99.90;;;;;;5076025;28;20219;-45
2023/03/21 08:03:55;;;;;;;14.47;5.07;;;9.60;99.90;;;;;;5075375;28;20178;-45
2023/03/21 08:06:21;;;;;;;9.17;4.50;;;9.70;99.90;;;;;;5075563;28;20180;-44
2023/03/21 08:08:47;;;;;;;11.40;5.70;;;9.70;99.90;;;;;;5075507;28;20187;-45
2023/03/21 08:11:14;;;;;;;11.83;5.27;;;9.70;99.90;;;;;;5075395;28;20204;-45
2023/03/21 08:13:40;;;;;;;10.57;4.77;;;9.70;99.90;;;;;;5075464;28;20197;-44
2023/03/21 08:16:06;;;;;;;11.90;5.00;;;9.80;99.90;;;;;;5075408;28;20172;-46
2023/03/21 08:18:32;;;;;;;9.50;4.33;;;9.80;99.90;;;;;;5075024;28;20179;-45
2023/03/21 08:20:58;;;;;;;14.93;4.80;;;9.80;99.90;;;;;;5074990;28;20253;-46
2023/03/21 08:23:24;;;;;;;9.33;4.60;;;9.80;99.90;;;;;;5075267;28;20261;-45
2023/03/21 08:25:52;;;;;;;6.90;3.97;;;9.80;99.90;;;;;;5075418;28;20550;-42
2023/03/21 08:28:17;;;;;;;12.73;4.93;;;9.90;99.90;;;;;;5074849;28;20648;-44
2023/03/21 08:30:43;;;;;;;13.30;4.80;;;9.90;99.90;;;;;;5074779;28;20189;-45
2023/03/21 08:33:09;;;;;;;11.07;4.43;;;10.00;99.90;;;;;;5075012;28;20645;-46
2023/03/21 08:35:35;;;;;;;7.90;4.43;;;10.00;99.90;;;;;;5074705;28;20186;-46
2023/03/21 08:38:02;;;;;;;11.03;4.77;;;10.10;99.90;;;;;;5074653;28;20182;-47
2023/03/21 08:40:28;;;;;;;15.80;4.80;;;10.10;99.90;;;;;;5074583;28;20202;-46
2023/03/21 08:42:54;;;;;;;11.43;4.03;;;10.20;99.90;;;;;;5074501;28;20551;-45
2023/03/21 08:45:20;;;;;;;12.70;4.60;;;10.20;99.90;;;;;;5074391;28;20190;-46
2023/03/21 08:47:46;;;;;;;12.30;5.00;;;10.30;99.90;;;;;;5074439;28;20182;-44
2023/03/21 08:50:15;;;;;;;15.80;4.43;;;10.30;99.90;;;;;;5074375;28;20254;-47
2023/03/21 08:52:41;;;;;;;11.53;4.97;;;10.40;99.90;;;;;;5074430;28;20229;-45
2023/03/21 08:55:08;;;;;;;11.53;5.13;;;10.40;99.90;;;;;;5074063;28;20217;-46
2023/03/21 08:57:33;;;;;;;12.77;4.90;;;10.50;99.90;;;;;;5074304;28;20198;-45
2023/03/21 08:59:59;;;;;;;11.77;4.90;;;10.50;99.90;;;;;;5074489;28;20636;-47
2023/03/21 09:02:24;;;;;;;10.23;4.00;;;10.60;99.90;;;;;;5074042;28;20218;-48
2023/03/21 09:04:53;;;;;;;16.00;5.37;;;10.60;99.90;;;;;;5074393;28;20182;-47
2023/03/21 09:07:21;;;;;;;10.53;4.90;;;10.70;99.90;;;;;;5074052;28;20205;-47
2023/03/21 09:09:46;;;;;;;10.40;4.97;;;10.70;99.90;;;;;;5073990;28;20182;-46
2023/03/21 09:12:12;;;;;;;12.67;5.50;;;10.80;99.90;;;;;;5074016;28;20202;-47
2023/03/21 09:14:37;;;;;;;16.03;5.00;;;10.80;99.90;;;;;;5074199;28;20511;-45
2023/03/21 09:17:03;;;;;;;10.13;4.50;;;10.90;99.90;;;;;;5074146;28;20203;-47
2023/03/21 09:19:30;;;;;;;11.73;4.73;;;11.00;99.90;;;;;;5073841;28;20205;-47
2023/03/21 09:21:56;;;;;;;11.60;5.30;;;11.10;99.90;;;;;;5073853;28;20564;-47
2023/03/21 09:24:22;;;;;;;13.83;5.57;;;11.20;99.90;;;;;;5073857;28;20171;-45
2023/03/21 09:26:49;;;;;;;20.63;6.20;;;11.30;99.90;;;;;;5073819;28;20174;-46
2023/03/21 09:29:15;;;;;;;15.03;5.77;;;11.40;99.90;;;;;;5073992;28;20262;-44
2023/03/21 09:31:42;;;;;;;10.27;4.87;;;11.40;99.90;;;;;;5074172;28;20643;-46
2023/03/21 09:34:08;;;;;;;12.33;5.37;;;11.50;99.90;;;;;;5073907;28;20179;-45
2023/03/21 09:36:35;;;;;;;10.90;4.83;;;11.50;99.90;;;;;;5073596;28;20647;-45
2023/03/21 09:39:02;;;;;;;13.63;5.20;;;11.60;99.90;;;;;;5073959;28;20592;-45
2023/03/21 09:41:55;;;;;;;11.40;5.03;;;11.60;99.90;;;;;;5073453;28;20284;-43
2023/03/21 09:44:51;;;;;;;11.60;4.87;;;11.70;99.90;;;;;;5073477;28;20194;-45
2023/03/21 09:47:20;;;;;;;15.07;5.00;;;11.80;99.90;;;;;;5056363;28;20561;-45
2023/03/21 09:49:52;;;;;;;11.40;5.90;;;11.80;99.90;;;;;;5073672;28;20175;-46
2023/03/21 09:52:25;;;;;;;16.23;5.37;;;12.00;99.90;;;;;;5073554;28;20202;-45
2023/03/21 09:54:54;;;;;;;18.40;5.70;;;12.10;99.90;;;;;;5072605;28;20564;-45
2023/03/21 09:57:41;;;;;;;11.60;4.97;;;12.20;99.90;;;;;;5073904;28;20175;-44
2023/03/21 10:00:19;;;;;;;10.00;4.83;;;12.30;99.90;;;;;;5073613;28;20167;-45
2023/03/21 10:02:52;;;;;;;9.77;5.00;;;12.50;99.90;;;;;;5073565;28;20191;-47
2023/03/21 10:05:17;;;;;;;6.77;4.23;;;12.60;99.90;;;;;;5073262;28;20176;-45
2023/03/21 10:07:57;;;;;;;10.40;4.43;;;12.70;99.90;;;;;;5072839;28;20175;-46
2023/03/21 10:10:36;;;;;;;8.90;4.70;;;12.80;99.90;;;;;;5073536;28;20260;-46
2023/03/21 10:13:04;;;;;;;11.87;4.20;;;12.90;99.90;;;;;;5073551;28;20167;-46
2023/03/21 10:15:29;;;;;;;8.97;3.83;;;12.90;99.90;;;;;;5073452;28;20235;-47
2023/03/21 10:18:01;;;;;;;8.37;3.67;;;13.00;99.90;;;;;;5073427;28;20179;-44
2023/03/21 10:20:37;;;;;;;9.87;3.30;;;13.00;99.90;;;;;;5073424;28;20206;-45
2023/03/21 10:23:11;;;;;;;9.70;3.43;;;13.00;99.90;;;;;;5073312;28;20209;-45
2023/03/21 10:26:04;;;;;;;7.43;2.83;;;13.10;99.90;;;;;;5073670;28;20194;-47
2023/03/21 10:28:34;;;;;;;6.00;2.70;;;13.20;99.90;;;;;;5073448;28;20558;-46
2023/03/21 10:31:06;;;;;;;7.27;2.87;;;13.20;99.90;;;;;;5073074;28;20249;-44
2023/03/21 10:33:41;;;;;;;8.77;2.97;;;13.30;99.90;;;;;;5073003;28;20271;-45
2023/03/21 10:36:19;;;;;;;8.47;3.03;;;13.40;99.90;;;;;;5073346;28;20246;-45
2023/03/21 10:38:47;;;;;;;6.70;2.60;;;13.50;99.90;;;;;;5073588;28;20171;-45
2023/03/21 10:41:13;;;;;;;7.80;3.00;;;13.60;99.90;;;;;;5073347;28;20259;-46
2023/03/21 10:43:44;;;;;;;6.97;3.30;;;13.70;99.90;;;;;;5073084;28;20191;-50
2023/03/21 10:46:19;;;;;;;6.93;3.33;;;13.80;99.90;;;;;;5072939;28;20164;-52
2023/03/21 10:48:51;;;;;;;8.43;3.03;;;13.80;99.90;;;;;;5071671;28;20528;-51
2023/03/21 10:51:22;;;;;;;9.30;3.10;;;13.90;99.90;;;;;;5073325;28;20191;-51
2023/03/21 10:54:12;;;;;;;6.43;2.67;;;13.90;99.90;;;;;;5072916;28;20207;-52
2023/03/21 10:56:43;;;;;;;13.33;3.90;;;13.90;99.90;;;;;;5073539;28;20217;-51
2023/03/21 10:59:17;;;;;;;8.23;3.47;;;13.90;99.90;;;;;;5073384;28;20164;-52
2023/03/21 11:01:48;;;;;;;6.20;3.20;;;13.90;99.90;;;;;;5072943;28;20203;-52
2023/03/21 11:04:16;;;;;;;5.40;3.43;;;13.80;99.90;;;;;;5072904;28;20524;-50
2023/03/21 11:06:49;;;;;;;9.10;4.03;;;13.80;99.90;;;;;;5072895;28;20176;-53
2023/03/21 11:09:19;;;;;;;9.30;4.33;;;13.80;99.90;;;;;;5072962;28;20172;-51
2023/03/21 11:12:09;;;;;;;11.47;5.20;;;13.90;99.90;;;;;;5073616;28;20195;-51
2023/03/21 11:14:41;;;;;;;14.27;5.60;;;13.80;99.90;;;;;;5073171;28;20164;-52
2023/03/21 11:17:15;;;;;;;10.90;4.80;;;13.80;99.90;;;;;;5072627;28;20236;-52
2023/03/21 11:19:53;;;;;;;8.50;4.40;;;13.70;99.90;;;;;;5075952;28;20190;-51
2023/03/21 11:22:43;;;;;;;7.97;4.20;;;13.70;99.90;;;;;;5076384;28;20316;-51
2023/03/21 11:25:30;;;;;;;11.97;4.73;;;13.60;99.90;;;;;;5076554;28;20598;-51
2023/03/21 11:27:56;;;;;;;8.13;4.27;;;13.50;99.90;;;;;;5076143;28;20646;-52
2023/03/21 11:30:25;;;;;;;9.10;4.07;;;13.50;99.90;;;;;;5075896;28;20172;-52
2023/03/21 11:32:54;;;;;;;7.60;4.30;;;13.50;99.90;;;;;;5075965;28;20176;-51
2023/03/21 11:35:40;;;;;;;6.57;4.50;;;13.50;99.90;;;;;;5076381;28;20175;-50
2023/03/21 11:38:22;;;;;;;10.63;4.40;;;13.40;99.90;;;;;;5075612;28;20195;-50
2023/03/21 11:40:55;;;;;;;8.07;3.60;;;13.40;99.90;;;;;;5075927;28;20294;-51
2023/03/21 11:43:22;;;;;;;8.00;4.53;;;13.40;99.90;;;;;;5075876;28;20210;-51
2023/03/21 11:46:08;;;;;;;6.63;4.37;;;13.40;99.90;;;;;;5076141;28;20183;-50
2023/03/21 11:48:42;;;;;;;9.67;4.60;;;13.40;99.90;;;;;;5076061;28;20175;-50
2023/03/21 11:51:22;;;;;;;7.10;4.10;;;13.40;99.90;;;;;;5074263;28;20202;-50
2023/03/21 11:54:02;;;;;;;8.37;4.40;;;13.40;99.90;;;;;;5076574;28;20163;-51
2023/03/21 11:56:35;;;;;;;10.23;4.20;;;13.40;99.90;;;;;;5075787;28;20187;-50
2023/03/21 11:59:36;;;;;;;8.97;4.07;;;13.40;99.90;;;;;;5076050;28;20636;-50
2023/03/21 12:02:27;;;;;;;8.17;4.83;;;13.40;99.90;;;;;;5075950;28;20202;-51
2023/03/21 12:04:52;;;;;;;7.03;4.57;;;13.50;99.90;;;;;;5075716;28;20175;-52
2023/03/21 12:07:40;;;;;;;11.20;4.03;;;13.50;99.90;;;;;;5075771;28;20179;-50
2023/03/21 12:10:24;;;;;;;12.53;5.13;;;13.60;99.90;;;;;;5075619;28;20183;-51
2023/03/21 12:13:14;;;;;;;8.20;4.80;;;13.80;99.90;;;;;;5075650;28;20273;-51
2023/03/21 12:15:47;;;;;;;9.93;4.20;;;13.90;99.90;;;;;;5075843;28;20655;-44
2023/03/21 12:18:34;;;;;;;9.30;4.73;;;14.00;99.90;;;;;;5075377;28;20170;-45
2023/03/21 12:21:00;;;;;;;9.13;5.00;;;14.00;99.90;;;;;;5075417;28;20198;-46
2023/03/21 12:23:34;;;;;;;8.77;4.50;;;14.00;99.90;;;;;;5075281;28;20542;-45
2023/03/21 12:26:11;;;;;;;7.63;3.87;;;14.00;99.90;;;;;;5075297;28;20246;-45
2023/03/21 12:28:55;;;;;;;10.37;4.40;;;14.20;99.90;;;;;;5075584;28;20198;-46
2023/03/21 12:31:57;;;;;;;10.97;4.73;;;14.20;99.90;;;;;;5074192;28;20701;-46
2023/03/21 12:34:37;;;;;;;9.73;4.33;;;14.30;99.90;;;;;;5075098;28;20273;-46
2023/03/21 12:37:26;;;;;;;7.70;4.43;;;14.30;99.90;;;;;;5075237;28;20179;-45
2023/03/21 12:39:58;;;;;;;9.87;4.03;;;14.40;99.90;;;;;;5073685;28;20647;-46
2023/03/21 12:42:38;;;;;;;6.47;4.00;;;14.40;99.90;;;;;;5074800;28;20679;-46
2023/03/21 12:45:14;;;;;;;6.67;4.23;;;14.50;99.90;;;;;;5074488;28;20298;-47
2023/03/21 12:47:43;;;;;;;7.07;3.77;;;14.60;99.90;;;;;;5074934;28;20183;-49
2023/03/21 12:50:18;;;;;;;7.97;3.90;;;14.70;99.90;;;;;;5074491;28;20728;-50
2023/03/21 12:52:50;;;;;;;7.93;3.87;;;14.60;99.90;;;;;;5074560;28;20659;-49
2023/03/21 12:55:23;;;;;;;6.63;3.47;;;14.60;99.90;;;;;;5074664;28;20179;-48
2023/03/21 12:58:19;;;;;;;4.97;2.73;;;14.60;99.90;;;;;;5074610;28;20187;-48
2023/03/21 13:00:55;;;;;;;5.30;2.47;;;14.60;99.90;;;;;;5069259;28;20220;-48
2023/03/21 13:03:31;;;;;;;4.53;3.07;;;14.70;99.90;;;;;;5074136;28;20206;-49
2023/03/21 13:06:00;;;;;;;4.10;2.50;;;14.70;99.90;;;;;;5072915;28;20167;-49